createdAt,value
2022-08-28T00:01:23.910Z,99073.44
2022-08-28T00:03:51.559Z,99072.72
2022-08-28T00:06:19.219Z,99069.22
2022-08-28T00:08:48.322Z,99064.38
2022-08-28T00:11:16.037Z,99075.28
2022-08-28T00:13:43.948Z,99079.53
2022-08-28T00:16:11.802Z,99083.66
2022-08-28T00:18:39.918Z,99082.56
2022-08-28T00:21:07.665Z,99084.66
2022-08-28T00:23:42.403Z,99086.94
2022-08-28T00:26:32.501Z,99081.34
2022-08-28T00:28:59.260Z,99079.41
2022-08-28T00:31:27.010Z,99073.59
2022-08-28T00:33:54.782Z,99080.28
2022-08-28T00:36:22.551Z,99088.06
2022-08-28T00:38:50.550Z,99079.19
2022-08-28T00:41:24.740Z,99079.28
2022-08-28T00:44:07.126Z,99083.06
2022-08-28T00:46:34.878Z,99079.28
2022-08-28T00:49:02.866Z,99085.38
2022-08-28T00:51:48.164Z,99075.66
2022-08-28T00:54:15.877Z,99072.97
2022-08-28T00:56:44.913Z,99081.84
2022-08-28T00:59:17.112Z,99073.09
2022-08-28T01:01:45.456Z,99076.88
2022-08-28T01:04:16.855Z,99079.41
2022-08-28T01:06:45.523Z,99080.00
2022-08-28T01:09:15.083Z,99071.91
2022-08-28T01:11:51.248Z,99078.94
2022-08-28T01:14:23.003Z,99076.13
2022-08-28T01:16:55.429Z,99087.41
2022-08-28T01:19:28.122Z,99087.78
2022-08-28T01:22:01.830Z,99089.97
2022-08-28T01:24:31.441Z,99089.13
2022-08-28T01:26:59.305Z,99087.28
2022-08-28T01:29:29.010Z,99086.56
2022-08-28T01:31:56.692Z,99090.81
2022-08-28T01:34:24.708Z,99097.38
2022-08-28T01:36:52.318Z,99093.84
2022-08-28T01:39:22.250Z,99096.25
2022-08-28T01:41:53.028Z,99089.75
2022-08-28T01:44:24.773Z,99090.19
2022-08-28T01:46:54.150Z,99090.34
2022-08-28T01:49:22.797Z,99085.47
2022-08-28T01:51:50.434Z,99090.91
2022-08-28T01:54:20.001Z,99085.06
2022-08-28T01:56:48.531Z,99088.38
2022-08-28T01:59:17.927Z,99085.81
2022-08-28T02:01:45.796Z,99084.75
2022-08-28T02:04:13.634Z,99085.31
2022-08-28T02:06:42.194Z,99081.56
2022-08-28T02:09:14.500Z,99079.25
2022-08-28T02:11:46.560Z,99082.06
2022-08-28T02:14:14.700Z,99081.81
2022-08-28T02:16:43.678Z,99076.00
2022-08-28T02:19:12.093Z,99082.53
2022-08-28T02:21:39.918Z,99086.81
2022-08-28T02:24:07.753Z,99080.00
2022-08-28T02:26:35.495Z,99082.06
2022-08-28T02:29:03.258Z,99086.28
2022-08-28T02:31:31.124Z,99090.81
2022-08-28T02:34:00.170Z,99091.66
2022-08-28T02:36:27.884Z,99088.00
2022-08-28T02:38:57.715Z,99094.81
2022-08-28T02:41:25.755Z,99085.81
2022-08-28T02:43:54.571Z,99091.53
2022-08-28T02:46:22.320Z,99090.44
2022-08-28T02:48:50.401Z,99087.75
2022-08-28T02:51:20.061Z,99087.50
2022-08-28T02:53:47.743Z,99086.41
2022-08-28T02:56:15.529Z,99078.53
2022-08-28T02:58:43.358Z,99082.03
2022-08-28T03:01:13.400Z,99081.06
2022-08-28T03:03:42.200Z,99073.69
2022-08-28T03:06:12.148Z,99075.50
2022-08-28T03:08:41.694Z,99074.78
2022-08-28T03:11:09.660Z,99080.47
2022-08-28T03:13:37.396Z,99078.88
2022-08-28T03:16:05.731Z,99079.00
2022-08-28T03:18:34.222Z,99083.25
2022-08-28T03:21:02.069Z,99083.00
2022-08-28T03:23:29.128Z,99080.72
2022-08-28T03:26:01.137Z,99078.75
2022-08-28T03:28:30.858Z,99074.38
2022-08-28T03:30:59.195Z,99074.78
2022-08-28T03:33:27.024Z,99071.25
2022-08-28T03:35:56.099Z,99068.31
2022-08-28T03:38:25.286Z,99067.72
2022-08-28T03:40:53.843Z,99064.69
2022-08-28T03:43:24.876Z,99070.88
2022-08-28T03:45:58.101Z,99072.34
2022-08-28T03:48:26.231Z,99078.75
2022-08-28T03:50:54.660Z,99082.41
2022-08-28T03:53:23.775Z,99082.03
2022-08-28T03:55:51.829Z,99082.38
2022-08-28T03:58:19.691Z,99082.75
2022-08-28T04:00:49.871Z,99082.50
2022-08-28T04:03:17.897Z,99077.13
2022-08-28T04:05:46.961Z,99084.53
2022-08-28T04:08:15.934Z,99081.13
2022-08-28T04:10:44.035Z,99075.81
2022-08-28T04:13:12.619Z,99078.63
2022-08-28T04:15:41.316Z,99078.97
2022-08-28T04:18:11.116Z,99076.88
2022-08-28T04:20:39.343Z,99082.78
2022-08-28T04:23:09.797Z,99079.66
2022-08-28T04:25:37.523Z,99081.38
2022-08-28T04:28:05.168Z,99084.66
2022-08-28T04:30:32.874Z,99092.22
2022-08-28T04:33:00.448Z,99084.44
2022-08-28T04:35:29.469Z,99095.91
2022-08-28T04:37:58.980Z,99096.63
2022-08-28T04:40:26.895Z,99105.13
2022-08-28T04:42:54.666Z,99113.72
2022-08-28T04:45:22.496Z,99112.22
2022-08-28T04:47:50.181Z,99108.09
2022-08-28T04:50:18.062Z,99112.81
2022-08-28T04:52:47.181Z,99113.75
2022-08-28T04:55:15.450Z,99109.16
2022-08-28T04:57:45.942Z,99124.31
2022-08-28T05:00:14.201Z,99121.47
2022-08-28T05:02:42.070Z,99119.72
2022-08-28T05:05:11.769Z,99126.25
2022-08-28T05:07:39.495Z,99117.06
2022-08-28T05:10:11.136Z,99123.81
2022-08-28T05:12:38.875Z,99125.78
2022-08-28T05:15:07.602Z,99125.50
2022-08-28T05:17:36.216Z,99129.53
2022-08-28T05:20:05.780Z,99129.44
2022-08-28T05:22:33.919Z,99139.47
2022-08-28T05:25:01.925Z,99139.53
2022-08-28T05:27:30.971Z,99137.81
2022-08-28T05:30:01.888Z,99137.09
2022-08-28T05:32:29.998Z,99139.34
2022-08-28T05:34:57.714Z,99140.59
2022-08-28T05:37:25.462Z,99152.22
2022-08-28T05:39:53.132Z,99150.81
2022-08-28T05:42:20.841Z,99143.56
2022-08-28T05:44:49.881Z,99149.63
2022-08-28T05:47:22.433Z,99157.00
2022-08-28T05:49:50.084Z,99140.81
2022-08-28T05:52:20.096Z,99158.47
2022-08-28T05:54:48.520Z,99157.19
2022-08-28T05:57:16.174Z,99161.78
2022-08-28T05:59:44.074Z,99169.47
2022-08-28T06:02:13.108Z,99160.38
2022-08-28T06:04:40.916Z,99171.63
2022-08-28T06:07:12.003Z,99166.47
2022-08-28T06:09:39.724Z,99162.38
2022-08-28T06:12:07.647Z,99154.59
2022-08-28T06:14:35.905Z,99159.25
2022-08-28T06:17:04.285Z,99168.34
2022-08-28T06:19:39.320Z,99164.75
2022-08-28T06:22:09.654Z,99167.06
2022-08-28T06:24:37.942Z,99173.88
2022-08-28T06:27:06.160Z,99176.53
2022-08-28T06:29:34.076Z,99178.13
2022-08-28T06:32:04.409Z,99172.94
2022-08-28T06:34:33.534Z,99181.94
2022-08-28T06:37:01.315Z,99177.81
2022-08-28T06:39:29.026Z,99171.41
2022-08-28T06:41:56.666Z,99179.06
2022-08-28T06:44:24.332Z,99178.81
2022-08-28T06:46:54.277Z,99176.41
2022-08-28T06:49:22.351Z,99176.41
2022-08-28T06:51:51.464Z,99182.69
2022-08-28T06:54:22.725Z,99181.13
2022-08-28T06:56:50.818Z,99174.81
2022-08-28T06:59:18.458Z,99179.56
2022-08-28T07:01:46.249Z,99180.41
2022-08-28T07:04:14.788Z,99186.84
2022-08-28T07:06:46.913Z,99194.63
2022-08-28T07:09:16.720Z,99199.00
2022-08-28T07:11:46.597Z,99201.78
2022-08-28T07:14:14.505Z,99198.75
2022-08-28T07:16:42.218Z,99202.53
2022-08-28T07:19:11.923Z,99199.38
2022-08-28T07:21:41.721Z,99203.50
2022-08-28T07:24:10.571Z,99203.50
2022-08-28T07:26:41.419Z,99206.03
2022-08-28T07:29:11.056Z,99215.88
2022-08-28T07:31:41.108Z,99210.75
2022-08-28T07:34:09.757Z,99214.75
2022-08-28T07:36:37.984Z,99214.91
2022-08-28T07:39:06.695Z,99206.47
2022-08-28T07:41:38.959Z,99207.25
2022-08-28T07:44:26.474Z,99210.72
2022-08-28T07:46:54.853Z,99198.38
2022-08-28T07:49:23.226Z,99209.19
2022-08-28T07:51:54.132Z,99208.00
2022-08-28T07:54:22.472Z,99209.97
2022-08-28T07:56:51.295Z,99217.31
2022-08-28T07:59:22.077Z,99211.16
2022-08-28T08:01:51.212Z,99215.88
2022-08-28T08:04:20.949Z,99222.88
2022-08-28T08:06:49.131Z,99221.47
2022-08-28T08:09:19.446Z,99223.47
2022-08-28T08:11:49.110Z,99223.47
2022-08-28T08:14:17.971Z,99223.28
2022-08-28T08:16:47.822Z,99216.56
2022-08-28T08:19:17.573Z,99224.53
2022-08-28T08:21:48.262Z,99222.97
2022-08-28T08:24:22.213Z,99234.84
2022-08-28T08:26:58.795Z,99234.22
2022-08-28T08:29:29.240Z,99226.44
2022-08-28T08:32:02.862Z,99236.88
2022-08-28T08:34:31.210Z,99232.69
2022-08-28T08:36:59.467Z,99232.47
2022-08-28T08:39:27.420Z,99244.75
2022-08-28T08:41:58.279Z,99240.88
2022-08-28T08:44:33.504Z,99237.28
2022-08-28T08:47:14.113Z,99228.25
2022-08-28T08:49:45.234Z,99241.59
2022-08-28T08:52:36.039Z,99236.03
2022-08-28T08:55:22.169Z,99232.16
2022-08-28T08:57:55.391Z,99241.34
2022-08-28T09:00:23.722Z,99242.41
2022-08-28T09:02:58.369Z,99247.00
2022-08-28T09:05:39.649Z,99249.16
2022-08-28T09:08:08.694Z,99237.69
2022-08-28T09:10:40.596Z,99244.88
2022-08-28T09:13:14.264Z,99240.50
2022-08-28T09:15:48.696Z,99243.91
2022-08-28T09:18:22.555Z,99244.41
2022-08-28T09:20:51.792Z,99243.66
2022-08-28T09:23:21.332Z,99247.94
2022-08-28T09:25:56.344Z,99244.94
2022-08-28T09:28:29.716Z,99247.66
2022-08-28T09:31:03.577Z,99250.63
2022-08-28T09:33:37.491Z,99259.97
2022-08-28T09:36:31.932Z,99256.75
2022-08-28T09:39:09.187Z,99258.94
2022-08-28T09:41:57.024Z,99257.78
2022-08-28T09:44:25.333Z,99246.38
2022-08-28T09:46:53.766Z,99250.06
2022-08-28T09:49:29.038Z,99243.38
2022-08-28T09:51:59.474Z,99249.75
2022-08-28T09:54:33.858Z,99242.81
2022-08-28T09:57:03.677Z,99251.44
2022-08-28T09:59:32.152Z,99246.50
2022-08-28T10:02:17.355Z,99253.94
2022-08-28T10:04:58.002Z,99245.69
2022-08-28T10:07:38.923Z,99246.13
2022-08-28T10:10:24.891Z,99234.97
2022-08-28T10:13:02.456Z,99239.63
2022-08-28T10:15:39.939Z,99240.56
2022-08-28T10:18:30.951Z,99242.31
2022-08-28T10:21:05.862Z,99233.25
2022-08-28T10:23:40.599Z,99230.75
2022-08-28T10:28:46.870Z,99239.38
2022-08-28T10:31:20.569Z,99235.03
2022-08-28T10:34:12.742Z,99227.53
2022-08-28T10:36:42.548Z,99234.66
2022-08-28T10:39:22.895Z,99235.66
2022-08-28T10:41:54.045Z,99232.47
2022-08-28T10:44:27.171Z,99239.06
2022-08-28T10:46:57.123Z,99240.03
2022-08-28T10:49:28.447Z,99224.31
2022-08-28T10:52:02.244Z,99216.78
2022-08-28T10:54:38.230Z,99214.72
2022-08-28T10:57:11.196Z,99216.50
2022-08-28T10:59:41.906Z,99217.59
2022-08-28T11:02:12.576Z,99222.13
2022-08-28T11:04:40.834Z,99223.09
2022-08-28T11:07:12.693Z,99226.72
2022-08-28T11:09:42.782Z,99232.69
2022-08-28T11:12:35.476Z,99229.91
2022-08-28T11:15:44.907Z,99224.81
2022-08-28T11:19:00.784Z,99218.88
2022-08-28T11:21:30.142Z,99218.47
2022-08-28T11:24:02.459Z,99222.50
2022-08-28T11:26:35.014Z,99224.00
2022-08-28T11:29:05.039Z,99214.81
2022-08-28T11:31:38.934Z,99217.72
2022-08-28T11:34:07.750Z,99215.94
2022-08-28T11:36:59.964Z,99214.78
2022-08-28T11:39:29.137Z,99220.63
2022-08-28T11:42:38.534Z,99220.72
2022-08-28T11:45:07.535Z,99221.34
2022-08-28T11:47:43.992Z,99217.63
2022-08-28T11:50:20.508Z,99211.69
2022-08-28T11:53:11.079Z,99215.94
2022-08-28T11:55:52.175Z,99216.47
2022-08-28T11:58:24.060Z,99226.81
2022-08-28T12:00:55.117Z,99222.00
2022-08-28T12:03:28.750Z,99218.13
2022-08-28T12:05:58.031Z,99207.84
2022-08-28T12:09:04.953Z,99211.69
2022-08-28T12:11:58.164Z,99211.03
2022-08-28T12:15:07.677Z,99207.97
2022-08-28T12:17:51.154Z,99213.75
2022-08-28T12:20:38.709Z,99193.16
2022-08-28T12:23:34.614Z,99193.03
2022-08-28T12:26:04.224Z,99191.69
2022-08-28T12:28:35.116Z,99189.66
2022-08-28T12:31:45.816Z,99190.19
2022-08-28T12:34:15.977Z,99202.81
2022-08-28T12:36:43.706Z,99199.47
2022-08-28T12:39:18.281Z,99189.47
2022-08-28T12:41:46.309Z,99204.47
2022-08-28T12:44:16.022Z,99198.25
2022-08-28T12:46:44.758Z,99192.19
2022-08-28T12:49:31.360Z,99191.84
2022-08-28T12:52:11.211Z,99187.00
2022-08-28T12:54:44.877Z,99185.47
2022-08-28T12:57:14.719Z,99181.41
2022-08-28T12:59:45.434Z,99182.78
2022-08-28T13:02:20.399Z,99179.56
2022-08-28T13:04:54.706Z,99182.59
2022-08-28T13:07:27.822Z,99180.22
2022-08-28T13:09:57.286Z,99175.00
2022-08-28T13:12:37.818Z,99181.44
2022-08-28T13:15:49.920Z,99170.78
2022-08-28T13:18:52.107Z,99165.72
2022-08-28T13:21:33.047Z,99173.81
2022-08-28T13:24:17.834Z,99171.63
2022-08-28T13:26:45.541Z,99168.41
2022-08-28T13:29:19.496Z,99167.69
2022-08-28T13:31:57.291Z,99165.00
2022-08-28T13:34:26.961Z,99162.97
2022-08-28T13:36:58.020Z,99166.81
2022-08-28T13:39:25.704Z,99158.16
2022-08-28T13:41:55.000Z,99164.72
2022-08-28T13:44:29.308Z,99165.72
2022-08-28T13:46:59.714Z,99162.41
2022-08-28T13:49:28.672Z,99161.50
2022-08-28T13:51:57.777Z,99159.28
2022-08-28T13:54:26.025Z,99153.06
2022-08-28T13:56:55.934Z,99160.00
2022-08-28T13:59:24.331Z,99156.31
2022-08-28T14:02:11.896Z,99165.13
2022-08-28T14:04:41.164Z,99162.66
2022-08-28T14:07:09.005Z,99156.75
2022-08-28T14:09:37.107Z,99160.19
2022-08-28T14:12:06.916Z,99159.72
2022-08-28T14:14:34.800Z,99161.06
2022-08-28T14:17:02.508Z,99150.28
2022-08-28T14:19:30.778Z,99151.84
2022-08-28T14:21:59.929Z,99146.81
2022-08-28T14:24:27.647Z,99145.47
2022-08-28T14:26:55.566Z,99143.75
2022-08-28T14:29:25.905Z,99155.56
2022-08-28T14:31:54.322Z,99153.50
2022-08-28T14:34:23.712Z,99152.16
2022-08-28T14:36:55.398Z,99140.25
2022-08-28T14:39:27.019Z,99145.63
2022-08-28T14:41:55.871Z,99148.34
2022-08-28T14:44:25.731Z,99152.47
2022-08-28T14:46:57.094Z,99146.56
2022-08-28T14:49:25.836Z,99150.28
2022-08-28T14:51:54.087Z,99142.84
2022-08-28T14:56:51.856Z,99126.50
2022-08-28T14:59:24.315Z,99141.53
2022-08-28T15:01:53.401Z,99137.81
2022-08-28T15:04:23.582Z,99134.28
2022-08-28T15:06:52.033Z,99139.34
2022-08-28T15:09:20.221Z,99145.75
2022-08-28T15:11:47.914Z,99145.38
2022-08-28T15:14:17.084Z,99138.66
2022-08-28T15:16:47.789Z,99136.47
2022-08-28T15:19:17.985Z,99128.19
2022-08-28T15:21:47.863Z,99132.91
2022-08-28T15:24:16.825Z,99130.38
2022-08-28T15:26:44.869Z,99127.31
2022-08-28T15:29:12.675Z,99133.25
2022-08-28T15:31:43.857Z,99135.53
2022-08-28T15:34:14.965Z,99132.38
2022-08-28T15:36:43.164Z,99132.03
2022-08-28T15:39:28.910Z,99126.25
2022-08-28T15:41:57.250Z,99122.69
2022-08-28T15:44:25.100Z,99120.34
2022-08-28T15:46:55.901Z,99121.31
2022-08-28T15:49:24.272Z,99120.97
2022-08-28T15:51:52.546Z,99120.81
2022-08-28T15:54:21.087Z,99127.75
2022-08-28T15:56:49.627Z,99131.81
2022-08-28T15:59:18.652Z,99127.56
2022-08-28T16:01:46.456Z,99131.44
2022-08-28T16:06:43.317Z,99097.94
2022-08-28T16:09:11.764Z,99114.47
2022-08-28T16:11:41.055Z,99076.50
2022-08-28T16:14:09.193Z,99118.13
2022-08-28T16:16:37.129Z,99099.13
2022-08-28T16:19:05.114Z,99106.34
2022-08-28T16:21:33.142Z,99108.53
2022-08-28T16:24:02.469Z,99130.19
2022-08-28T16:28:59.960Z,99120.16
2022-08-28T16:33:56.000Z,99113.84
2022-08-28T16:36:25.238Z,99108.03
2022-08-28T16:39:00.343Z,99121.69
2022-08-28T16:41:33.706Z,99121.75
2022-08-28T16:44:01.332Z,99121.31
2022-08-28T16:46:29.466Z,99122.56
2022-08-28T16:48:57.356Z,99121.31
2022-08-28T16:51:27.048Z,99126.44
2022-08-28T16:53:55.134Z,99119.84
2022-08-28T16:56:24.096Z,99125.56
2022-08-28T16:58:53.635Z,99122.06
2022-08-28T17:01:24.095Z,99126.09
2022-08-28T17:03:52.864Z,99116.97
2022-08-28T17:06:23.615Z,99113.72
2022-08-28T17:08:56.403Z,99113.59
2022-08-28T17:11:24.760Z,99110.84
2022-08-28T17:13:53.862Z,99103.56
2022-08-28T17:16:22.826Z,99111.44
2022-08-28T17:18:52.113Z,99112.19
2022-08-28T17:21:40.155Z,99109.88
2022-08-28T17:24:08.569Z,99103.63
2022-08-28T17:26:36.383Z,99116.22
2022-08-28T17:29:05.816Z,99106.53
2022-08-28T17:31:33.706Z,99126.84
2022-08-28T17:34:01.482Z,99117.75
2022-08-28T17:36:33.620Z,99123.38
2022-08-28T17:39:02.984Z,99125.53
2022-08-28T17:41:31.550Z,99122.88
2022-08-28T17:44:01.054Z,99116.94
2022-08-28T17:46:34.094Z,99133.34
2022-08-28T17:49:05.984Z,99131.41
2022-08-28T17:51:42.450Z,99131.00
2022-08-28T17:54:13.032Z,99133.16
2022-08-28T17:56:41.182Z,99132.94
2022-08-28T17:59:09.181Z,99126.53
2022-08-28T18:01:38.822Z,99130.72
2022-08-28T18:04:06.657Z,99137.75
2022-08-28T18:06:34.882Z,99133.97
2022-08-28T18:09:02.967Z,99142.94
2022-08-28T18:11:31.015Z,99146.78
2022-08-28T18:13:59.654Z,99133.22
2022-08-28T18:16:31.415Z,99148.91
2022-08-28T18:19:01.118Z,99142.59
2022-08-28T18:21:30.216Z,99147.00
2022-08-28T18:23:58.273Z,99157.59
2022-08-28T18:26:26.074Z,99152.66
2022-08-28T18:28:53.668Z,99163.84
2022-08-28T18:31:24.095Z,99155.97
2022-08-28T18:33:52.084Z,99160.94
2022-08-28T18:36:23.037Z,99161.09
2022-08-28T18:38:51.341Z,99165.34
2022-08-28T18:41:20.353Z,99163.78
2022-08-28T18:43:48.303Z,99169.00
2022-08-28T18:46:16.012Z,99169.31
2022-08-28T18:48:43.816Z,99179.78
2022-08-28T18:51:13.235Z,99186.09
2022-08-28T18:53:43.382Z,99183.97
2022-08-28T18:56:12.159Z,99187.38
2022-08-28T18:58:40.537Z,99202.75
2022-08-28T19:01:09.306Z,99210.94
2022-08-28T19:03:37.686Z,99217.44
2022-08-28T19:06:06.913Z,99220.66
2022-08-28T19:08:36.711Z,99226.69
2022-08-28T19:11:08.715Z,99231.50
2022-08-28T19:13:36.722Z,99234.31
2022-08-28T19:16:05.298Z,99234.72
2022-08-28T19:18:33.319Z,99230.91
2022-08-28T19:21:05.736Z,99234.13
2022-08-28T19:23:33.650Z,99234.72
2022-08-28T19:26:01.368Z,99240.81
2022-08-28T19:28:30.362Z,99241.03
2022-08-28T19:30:58.083Z,99238.97
2022-08-28T19:33:26.090Z,99239.25
2022-08-28T19:35:54.931Z,99243.84
2022-08-28T19:38:22.617Z,99245.28
2022-08-28T19:40:50.490Z,99243.34
2022-08-28T19:43:18.406Z,99260.56
2022-08-28T19:45:47.467Z,99257.88
2022-08-28T19:48:15.676Z,99258.41
2022-08-28T19:50:43.884Z,99270.81
2022-08-28T19:53:11.533Z,99269.13
2022-08-28T19:55:41.287Z,99270.28
2022-08-28T19:58:10.302Z,99268.72
2022-08-28T20:00:38.026Z,99273.81
2022-08-28T20:03:07.123Z,99270.69
2022-08-28T20:05:34.855Z,99279.97
2022-08-28T20:08:06.355Z,99277.22
2022-08-28T20:10:34.092Z,99274.88
2022-08-28T20:13:01.684Z,99281.59
2022-08-28T20:15:29.311Z,99281.97
2022-08-28T20:17:57.739Z,99282.63
2022-08-28T20:20:29.902Z,99281.38
2022-08-28T20:22:57.973Z,99285.22
2022-08-28T20:25:26.887Z,99277.78
2022-08-28T20:27:58.333Z,99290.75
2022-08-28T20:30:29.343Z,99287.72
2022-08-28T20:32:57.162Z,99291.25
2022-08-28T20:35:27.480Z,99285.78
2022-08-28T20:37:55.691Z,99292.84
2022-08-28T20:40:24.273Z,99288.09
2022-08-28T20:42:52.362Z,99293.69
2022-08-28T20:45:20.891Z,99300.50
2022-08-28T20:47:49.605Z,99297.84
2022-08-28T20:50:17.423Z,99292.97
2022-08-28T20:52:46.599Z,99304.41
2022-08-28T20:55:14.923Z,99307.69
2022-08-28T20:57:42.939Z,99301.75
2022-08-28T21:00:12.495Z,99305.41
2022-08-28T21:02:40.290Z,99311.97
2022-08-28T21:05:08.524Z,99311.97
2022-08-28T21:07:36.324Z,99319.47
2022-08-28T21:10:07.929Z,99323.25
2022-08-28T21:12:36.369Z,99322.25
2022-08-28T21:15:04.363Z,99322.25
2022-08-28T21:17:32.065Z,99319.72
2022-08-28T21:20:01.479Z,99337.72
2022-08-28T21:22:31.332Z,99326.88
2022-08-28T21:24:59.158Z,99329.06
2022-08-28T21:27:28.422Z,99328.81
2022-08-28T21:29:58.018Z,99325.03
2022-08-28T21:32:25.814Z,99331.47
2022-08-28T21:34:54.506Z,99333.31
2022-08-28T21:37:22.622Z,99333.53
2022-08-28T21:39:50.742Z,99336.81
2022-08-28T21:42:18.399Z,99331.16
2022-08-28T21:44:51.865Z,99329.97
2022-08-28T21:47:21.389Z,99333.75
2022-08-28T21:49:49.536Z,99335.16
2022-08-28T21:52:18.132Z,99340.97
2022-08-28T21:54:45.952Z,99328.69
2022-08-28T21:57:13.697Z,99346.72
2022-08-28T21:59:41.649Z,99344.38
2022-08-28T22:02:10.927Z,99352.69
2022-08-28T22:04:38.739Z,99353.13
2022-08-28T22:07:06.521Z,99362.25
2022-08-28T22:09:34.347Z,99369.72
2022-08-28T22:12:02.064Z,99370.50
2022-08-28T22:14:29.729Z,99365.16
2022-08-28T22:16:57.631Z,99353.38
2022-08-28T22:19:26.816Z,99366.78
2022-08-28T22:22:12.068Z,99367.97
2022-08-28T22:24:39.725Z,99376.72
2022-08-28T22:27:07.593Z,99361.91
2022-08-28T22:29:37.163Z,99377.28
2022-08-28T22:32:05.050Z,99373.00
2022-08-28T22:34:39.084Z,99383.47
2022-08-28T22:37:06.937Z,99375.66
2022-08-28T22:39:35.077Z,99373.66
2022-08-28T22:42:02.820Z,99369.19
2022-08-28T22:44:31.102Z,99375.47
2022-08-28T22:46:59.154Z,99371.44
2022-08-28T22:49:27.261Z,99372.94
2022-08-28T22:51:56.266Z,99374.19
2022-08-28T22:54:23.997Z,99373.78
2022-08-28T22:56:51.655Z,99366.97
2022-08-28T22:59:19.566Z,99377.19
2022-08-28T23:01:47.404Z,99375.91
2022-08-28T23:04:15.953Z,99375.59
2022-08-28T23:06:43.617Z,99376.47
2022-08-28T23:09:12.822Z,99378.03
2022-08-28T23:11:40.411Z,99371.53
2022-08-28T23:14:08.056Z,99375.72
2022-08-28T23:16:36.082Z,99367.47
2022-08-28T23:19:07.867Z,99370.69
2022-08-28T23:21:43.403Z,99377.09
2022-08-28T23:24:13.449Z,99376.78
2022-08-28T23:26:41.663Z,99375.28
2022-08-28T23:29:09.364Z,99374.31
2022-08-28T23:31:37.538Z,99374.31
2022-08-28T23:34:06.121Z,99376.78
2022-08-28T23:36:35.792Z,99374.53
2022-08-28T23:39:03.666Z,99359.38
2022-08-28T23:41:32.760Z,99364.19
2022-08-28T23:44:02.336Z,99363.31
2022-08-28T23:46:31.932Z,99356.72
2022-08-28T23:48:59.639Z,99357.13
2022-08-28T23:51:27.459Z,99355.84
2022-08-28T23:53:55.869Z,99354.16
2022-08-28T23:56:28.002Z,99348.81
2022-08-28T23:58:57.279Z,99357.03
